Time;durP1;ratioP1;P1;durP2;ratioP2;P2;SDS_P1;SDS_P2;PMS_P1;PMS_P2;Temp;Humidity;BMP_temperature;BMP_pressure;BME280_temperature;BME280_humidity;BME280_pressure;Samples;Min_cycle;Max_cycle;Signal;HPM_P1;HPM_P2
2021/05/26 00:00:12;;;;;;;9.47;5.27;;;10.10;84.80;;;;;;4993735;28;20062;-82
2021/05/26 00:02:37;;;;;;;9.60;5.90;;;10.20;84.80;;;;;;4985717;28;20030;-81
2021/05/26 00:05:04;;;;;;;7.90;5.13;;;10.20;84.80;;;;;;4993625;28;20037;-83
2021/05/26 00:07:30;;;;;;;9.70;6.20;;;10.30;84.70;;;;;;4976721;28;20121;-83
2021/05/26 00:09:56;;;;;;;9.37;4.40;;;10.40;84.70;;;;;;4993591;28;20161;-81
2021/05/26 00:12:21;;;;;;;8.97;3.27;;;10.40;84.50;;;;;;4993475;28;20041;-83
2021/05/26 00:14:47;;;;;;;11.23;4.10;;;10.40;84.20;;;;;;4977030;28;20034;-81
2021/05/26 00:17:13;;;;;;;9.70;4.20;;;10.40;84.10;;;;;;4997765;28;20062;-81
2021/05/26 00:19:41;;;;;;;9.60;4.10;;;10.40;84.20;;;;;;4992380;28;20047;-82
2021/05/26 00:22:07;;;;;;;9.77;4.30;;;10.50;84.10;;;;;;4996701;28;20126;-82
2021/05/26 00:24:33;;;;;;;11.70;4.00;;;10.60;84.10;;;;;;4996009;28;20136;-81
2021/05/26 00:26:58;;;;;;;7.57;3.97;;;10.60;83.80;;;;;;5012698;28;20041;-82
2021/05/26 00:29:24;;;;;;;11.47;4.60;;;10.60;83.80;;;;;;4994690;28;20534;-82
2021/05/26 00:31:50;;;;;;;9.23;3.93;;;10.50;83.60;;;;;;4996533;28;20441;-81
2021/05/26 00:34:15;;;;;;;7.97;3.20;;;10.60;83.90;;;;;;4996353;28;20041;-81
2021/05/26 00:36:41;;;;;;;10.70;4.47;;;10.60;83.70;;;;;;4995817;28;20064;-81
2021/05/26 00:39:07;;;;;;;13.33;4.13;;;10.60;83.70;;;;;;5012989;28;20037;-81
2021/05/26 00:41:33;;;;;;;12.83;3.03;;;10.70;83.70;;;;;;4995309;28;20099;-80
2021/05/26 00:43:58;;;;;;;11.00;3.40;;;10.70;83.60;;;;;;4996018;28;20132;-82
2021/05/26 00:46:24;;;;;;;8.67;3.53;;;10.70;83.60;;;;;;5012089;28;20033;-83
2021/05/26 00:48:50;;;;;;;9.83;3.07;;;10.70;83.50;;;;;;4996184;28;20038;-82
2021/05/26 00:51:15;;;;;;;11.27;3.17;;;10.70;83.30;;;;;;4996581;28;20092;-81
2021/05/26 00:53:41;;;;;;;9.70;3.00;;;10.70;83.40;;;;;;4996211;28;20046;-80
2021/05/26 00:56:07;;;;;;;11.33;3.47;;;10.70;83.50;;;;;;4996346;28;20034;-80
2021/05/26 00:58:34;;;;;;;11.47;4.00;;;10.70;83.60;;;;;;5011608;28;20026;-81
2021/05/26 01:01:00;;;;;;;11.70;3.30;;;10.70;83.50;;;;;;4985632;28;20534;-79
2021/05/26 01:03:26;;;;;;;10.70;3.40;;;10.80;83.50;;;;;;4977360;28;20133;-83
2021/05/26 01:05:52;;;;;;;14.37;3.90;;;10.70;83.40;;;;;;5011074;28;20053;-80
2021/05/26 01:08:18;;;;;;;12.30;3.30;;;10.70;83.40;;;;;;5012008;28;20076;-81
2021/05/26 01:10:43;;;;;;;8.47;2.93;;;10.60;83.40;;;;;;5010971;28;20034;-79
2021/05/26 01:13:10;;;;;;;13.37;2.90;;;10.50;83.40;;;;;;4995732;28;20050;-79
2021/05/26 01:15:36;;;;;;;12.73;3.97;;;10.50;83.60;;;;;;4978274;28;20041;-80
2021/05/26 01:18:38;;;;;;;14.47;3.00;;;10.50;83.80;;;;;;4975345;28;20026;-79
2021/05/26 01:21:06;;;;;;;12.53;3.83;;;10.50;83.80;;;;;;4934714;29;20051;-80
2021/05/26 01:23:32;;;;;;;11.13;3.70;;;10.60;83.80;;;;;;4995894;28;20403;-81
2021/05/26 01:26:00;;;;;;;11.00;3.83;;;10.60;83.70;;;;;;5011095;28;20040;-80
2021/05/26 01:28:28;;;;;;;12.77;3.90;;;10.60;83.80;;;;;;5010735;28;20042;-80
2021/05/26 01:30:55;;;;;;;12.93;3.43;;;10.60;83.90;;;;;;5010524;28;20018;-79
2021/05/26 01:33:21;;;;;;;12.90;3.23;;;10.60;83.80;;;;;;5012749;28;20038;-79
2021/05/26 01:35:48;;;;;;;13.17;3.40;;;10.50;83.70;;;;;;5010026;28;20176;-80
2021/05/26 01:38:16;;;;;;;10.77;3.27;;;10.50;83.80;;;;;;4994394;28;20032;-79
2021/05/26 01:40:42;;;;;;;10.13;3.67;;;10.50;83.80;;;;;;5010727;28;20552;-78
2021/05/26 01:43:08;;;;;;;15.10;3.40;;;10.60;83.90;;;;;;4992416;28;20046;-79
2021/05/26 01:45:35;;;;;;;13.43;3.97;;;10.60;83.70;;;;;;4991817;28;20026;-81
2021/05/26 01:48:00;;;;;;;12.57;3.40;;;10.60;83.80;;;;;;4976314;28;20034;-80
2021/05/26 01:50:26;;;;;;;12.60;3.80;;;10.60;83.80;;;;;;4975784;28;20038;-79
2021/05/26 01:52:53;;;;;;;13.53;3.97;;;10.50;83.90;;;;;;4991594;28;20050;-79
2021/05/26 01:55:20;;;;;;;12.07;3.77;;;10.50;83.80;;;;;;5010172;28;20030;-79
2021/05/26 01:57:46;;;;;;;14.93;3.40;;;10.40;84.00;;;;;;5010794;28;20042;-79
2021/05/26 02:00:15;;;;;;;11.90;3.03;;;10.20;84.20;;;;;;5010649;28;20033;-79
2021/05/26 02:02:41;;;;;;;9.33;4.17;;;10.10;84.40;;;;;;5009464;28;20092;-78
2021/05/26 02:05:09;;;;;;;12.10;3.33;;;10.00;84.80;;;;;;4993906;28;20041;-79
2021/05/26 02:07:36;;;;;;;10.43;3.03;;;10.00;85.00;;;;;;5009948;28;20037;-80
2021/05/26 02:10:07;;;;;;;10.50;3.67;;;10.00;85.00;;;;;;5009936;28;20061;-79
2021/05/26 02:12:35;;;;;;;12.80;3.30;;;10.00;85.10;;;;;;4985617;28;20364;-79
2021/05/26 02:15:02;;;;;;;11.53;3.40;;;9.90;85.20;;;;;;4990196;28;20052;-79
2021/05/26 02:17:28;;;;;;;16.40;3.77;;;10.00;85.40;;;;;;4980203;28;20025;-78
2021/05/26 02:19:54;;;;;;;10.10;3.47;;;9.90;85.20;;;;;;4994097;28;20088;-79
2021/05/26 02:22:20;;;;;;;14.13;3.53;;;9.80;85.30;;;;;;5012342;28;20057;-79
2021/05/26 02:24:46;;;;;;;8.70;3.37;;;9.80;85.40;;;;;;5010974;28;20034;-79
2021/05/26 02:27:13;;;;;;;12.13;4.17;;;9.80;85.70;;;;;;4993805;28;20033;-79
2021/05/26 02:29:39;;;;;;;11.77;3.13;;;9.70;85.60;;;;;;5009273;28;20478;-80
2021/05/26 02:32:06;;;;;;;8.60;2.97;;;9.70;85.80;;;;;;5009237;28;20041;-78
2021/05/26 02:34:32;;;;;;;10.07;3.20;;;9.70;86.00;;;;;;5011547;28;20030;-79
2021/05/26 02:36:58;;;;;;;11.97;3.70;;;9.70;86.00;;;;;;4992610;28;20912;-78
2021/05/26 02:39:24;;;;;;;12.63;3.10;;;9.70;86.10;;;;;;4993391;28;20807;-79
2021/05/26 02:41:50;;;;;;;13.37;3.40;;;9.60;86.10;;;;;;4989592;28;20367;-78
2021/05/26 02:44:16;;;;;;;11.73;3.80;;;9.50;86.30;;;;;;4993186;28;20035;-78
2021/05/26 02:46:41;;;;;;;7.40;3.00;;;9.60;86.60;;;;;;5002336;28;20042;-80
2021/05/26 02:49:08;;;;;;;13.57;3.47;;;9.50;86.60;;;;;;5001451;28;20030;-79
2021/05/26 02:51:34;;;;;;;12.60;3.40;;;9.60;86.80;;;;;;5021242;28;20103;-79
2021/05/26 02:54:01;;;;;;;11.30;3.40;;;9.70;86.70;;;;;;5025409;28;20399;-79
2021/05/26 02:56:27;;;;;;;11.23;2.73;;;9.70;86.50;;;;;;5025631;28;20046;-78
2021/05/26 02:58:53;;;;;;;11.57;3.80;;;9.80;86.50;;;;;;5026193;28;20425;-79
2021/05/26 03:01:19;;;;;;;11.57;3.37;;;9.80;86.20;;;;;;5024145;28;20026;-79
2021/05/26 03:03:45;;;;;;;11.63;3.20;;;9.90;86.60;;;;;;5025758;28;20100;-81
2021/05/26 03:06:11;;;;;;;12.90;3.90;;;9.90;86.10;;;;;;5022933;28;20029;-79
2021/05/26 03:08:36;;;;;;;11.33;3.27;;;9.90;86.10;;;;;;5017972;28;20406;-78
2021/05/26 03:11:03;;;;;;;11.90;3.50;;;9.90;86.00;;;;;;5015144;28;20021;-79
2021/05/26 03:13:30;;;;;;;10.57;3.17;;;9.90;85.90;;;;;;5016481;28;20183;-79
2021/05/26 03:15:55;;;;;;;12.87;3.03;;;9.90;85.90;;;;;;5015199;28;20033;-78
2021/05/26 03:18:22;;;;;;;10.10;3.57;;;9.90;86.00;;;;;;5017441;28;20034;-79
2021/05/26 03:20:50;;;;;;;13.57;3.40;;;9.90;86.00;;;;;;4994823;28;20066;-82
2021/05/26 03:23:17;;;;;;;11.80;4.03;;;9.90;86.00;;;;;;4997079;28;20035;-78
2021/05/26 03:25:45;;;;;;;10.80;3.43;;;9.90;86.00;;;;;;5015070;28;20378;-79
2021/05/26 03:28:11;;;;;;;13.07;3.30;;;9.90;86.10;;;;;;5015022;28;20117;-79
2021/05/26 03:30:37;;;;;;;9.13;3.60;;;9.90;86.00;;;;;;5014888;28;20406;-79
2021/05/26 03:33:04;;;;;;;9.40;3.43;;;9.90;86.00;;;;;;4993303;28;20041;-79
2021/05/26 03:35:32;;;;;;;9.33;3.00;;;9.90;86.10;;;;;;4994269;28;20056;-79
2021/05/26 03:37:58;;;;;;;7.77;3.77;;;10.00;86.10;;;;;;4993345;28;20062;-78
2021/05/26 03:40:23;;;;;;;12.10;3.50;;;10.10;86.20;;;;;;4994074;28;20050;-78
2021/05/26 03:42:49;;;;;;;10.60;3.70;;;10.10;86.10;;;;;;4993423;28;20457;-80
2021/05/26 03:45:15;;;;;;;7.47;2.87;;;10.20;86.00;;;;;;4995303;28;20073;-78
2021/05/26 03:47:41;;;;;;;11.23;3.77;;;10.20;85.70;;;;;;4992119;28;20109;-78
2021/05/26 03:50:13;;;;;;;9.47;3.03;;;10.30;85.70;;;;;;5011927;28;20462;-79
2021/05/26 03:52:46;;;;;;;10.57;3.50;;;10.30;85.60;;;;;;5014610;28;20045;-79
2021/05/26 03:55:14;;;;;;;9.70;3.23;;;10.30;85.60;;;;;;5012253;28;20474;-78
2021/05/26 03:57:40;;;;;;;6.80;2.80;;;10.40;85.50;;;;;;5012634;28;20030;-79
2021/05/26 04:00:08;;;;;;;8.33;2.90;;;10.40;85.40;;;;;;5012332;28;20308;-79
2021/05/26 04:02:34;;;;;;;9.87;3.60;;;10.50;85.40;;;;;;5013697;28;20045;-79
2021/05/26 04:04:59;;;;;;;11.37;3.83;;;10.50;85.20;;;;;;4995820;28;20045;-79
2021/05/26 04:07:25;;;;;;;8.37;3.10;;;10.40;85.20;;;;;;5014962;28;20474;-80
2021/05/26 04:09:51;;;;;;;8.20;2.97;;;10.40;85.20;;;;;;5012878;28;20451;-79
2021/05/26 04:12:17;;;;;;;7.53;2.97;;;10.40;85.20;;;;;;5012692;28;20034;-79
2021/05/26 04:14:42;;;;;;;7.77;3.10;;;10.50;85.30;;;;;;5014548;28;20038;-79
2021/05/26 04:17:08;;;;;;;7.97;3.60;;;10.50;85.20;;;;;;5012314;28;20494;-79
2021/05/26 04:19:34;;;;;;;9.03;3.30;;;10.50;85.10;;;;;;4992526;28;20097;-77
2021/05/26 04:21:59;;;;;;;13.07;4.10;;;10.50;85.10;;;;;;4969092;28;20080;-76
2021/05/26 04:24:25;;;;;;;12.00;3.57;;;10.50;85.40;;;;;;5012147;28;20049;-77
2021/05/26 04:26:51;;;;;;;12.33;3.67;;;10.50;85.00;;;;;;5012297;28;20033;-78
2021/05/26 04:29:18;;;;;;;10.77;3.73;;;10.50;85.10;;;;;;5011376;28;20455;-78
2021/05/26 04:31:44;;;;;;;12.80;4.03;;;10.50;85.20;;;;;;4996418;28;20058;-78
2021/05/26 04:34:10;;;;;;;7.63;3.43;;;10.60;85.20;;;;;;4997442;28;20085;-77
2021/05/26 04:36:35;;;;;;;7.13;3.03;;;10.60;85.10;;;;;;4996586;28;20140;-78
2021/05/26 04:39:01;;;;;;;8.37;3.13;;;10.60;85.00;;;;;;5011741;28;20088;-78
2021/05/26 04:41:27;;;;;;;8.33;3.07;;;10.60;85.00;;;;;;4995751;28;20026;-78
2021/05/26 04:43:52;;;;;;;6.83;2.67;;;10.70;85.00;;;;;;4996968;28;20470;-78
2021/05/26 04:46:18;;;;;;;7.33;2.90;;;10.70;84.90;;;;;;4983519;28;20508;-79
2021/05/26 04:48:44;;;;;;;11.13;3.10;;;10.80;84.70;;;;;;5018429;28;20482;-78
2021/05/26 04:51:09;;;;;;;7.90;2.30;;;10.80;84.80;;;;;;5003240;28;20417;-79
2021/05/26 04:53:35;;;;;;;10.20;2.87;;;10.90;84.70;;;;;;5005649;28;20046;-77
2021/05/26 04:56:00;;;;;;;10.20;3.17;;;10.90;84.50;;;;;;5005347;28;20382;-81
2021/05/26 04:58:26;;;;;;;10.73;3.00;;;10.90;84.40;;;;;;4990302;28;20025;-79
2021/05/26 05:00:52;;;;;;;8.20;2.70;;;10.90;84.30;;;;;;5023316;28;20034;-78
2021/05/26 05:03:17;;;;;;;8.73;2.70;;;10.90;83.90;;;;;;5021796;28;20048;-79
2021/05/26 05:05:43;;;;;;;5.97;2.33;;;11.00;83.90;;;;;;5018216;28;20034;-79
2021/05/26 05:08:09;;;;;;;6.87;2.57;;;11.00;84.00;;;;;;5013742;28;20038;-79
2021/05/26 05:10:35;;;;;;;8.50;2.77;;;11.20;84.00;;;;;;5013942;28;20022;-79
2021/05/26 05:13:02;;;;;;;7.73;2.57;;;11.30;83.70;;;;;;5010432;28;20052;-79
2021/05/26 05:15:28;;;;;;;6.37;2.10;;;11.50;83.90;;;;;;4993075;28;20026;-78
2021/05/26 05:17:54;;;;;;;6.80;2.40;;;11.70;83.20;;;;;;4994746;28;20034;-79
2021/05/26 05:20:20;;;;;;;8.53;2.67;;;11.80;82.40;;;;;;5004967;28;20410;-80
2021/05/26 05:22:56;;;;;;;5.77;2.33;;;11.90;81.90;;;;;;5013059;28;20041;-80
2021/05/26 05:25:22;;;;;;;7.33;2.57;;;12.00;81.70;;;;;;5013092;28;20022;-78
2021/05/26 05:27:49;;;;;;;4.70;2.10;;;12.20;81.30;;;;;;4992820;28;20030;-78
2021/05/26 05:30:15;;;;;;;4.37;1.60;;;12.60;80.60;;;;;;4995365;28;20125;-79
2021/05/26 05:32:40;;;;;;;4.07;1.90;;;14.10;78.20;;;;;;4994216;28;20034;-79
2021/05/26 05:35:07;;;;;;;6.40;1.25;;;15.90;72.80;;;;;;4977324;28;20037;-81
2021/05/26 05:37:33;;;;;;;5.32;1.48;;;17.70;68.20;;;;;;4978638;28;20483;-77
2021/05/26 05:39:59;;;;;;;7.78;1.40;;;18.10;63.60;;;;;;5004633;28;20106;-75
2021/05/26 05:42:27;;;;;;;3.45;1.20;;;17.50;63.80;;;;;;5010491;28;20187;-78
2021/05/26 05:44:54;;;;;;;3.13;1.00;;;16.80;66.00;;;;;;4993010;28;20048;-77
2021/05/26 05:47:19;;;;;;;3.08;0.90;;;16.10;67.90;;;;;;5011519;28;20116;-78
2021/05/26 05:49:45;;;;;;;3.90;1.25;;;15.60;69.00;;;;;;4964430;28;20453;-80
2021/05/26 05:52:11;;;;;;;4.30;1.08;;;15.10;70.30;;;;;;4986152;28;20034;-80
2021/05/26 05:54:37;;;;;;;3.13;1.00;;;14.70;71.20;;;;;;4993931;28;20030;-80
2021/05/26 05:57:04;;;;;;;3.78;0.90;;;14.50;71.60;;;;;;4994080;28;20088;-79
2021/05/26 05:59:30;;;;;;;4.22;0.90;;;14.50;72.00;;;;;;5009773;28;20026;-77
2021/05/26 06:01:56;;;;;;;3.70;1.10;;;14.50;72.50;;;;;;5010218;28;20039;-77
2021/05/26 06:04:21;;;;;;;4.13;1.20;;;14.70;72.20;;;;;;5009257;28;20474;-78
2021/05/26 06:06:47;;;;;;;3.95;1.20;;;15.20;71.40;;;;;;4993722;28;20128;-76
2021/05/26 06:09:13;;;;;;;4.88;1.00;;;15.90;69.10;;;;;;4992051;28;20029;-78
2021/05/26 06:11:38;;;;;;;3.38;1.10;;;16.60;68.00;;;;;;5009884;28;20034;-78
2021/05/26 06:14:08;;;;;;;4.18;1.38;;;17.00;66.40;;;;;;4973574;28;20128;-78
2021/05/26 06:16:38;;;;;;;3.90;1.10;;;17.20;65.50;;;;;;4990245;28;20022;-78
2021/05/26 06:19:05;;;;;;;3.25;1.25;;;17.70;64.40;;;;;;5005308;28;20120;-77
2021/05/26 06:21:32;;;;;;;3.33;1.13;;;18.00;63.60;;;;;;5001295;28;20050;-80
2021/05/26 06:23:58;;;;;;;3.72;1.02;;;18.90;61.90;;;;;;5008911;28;20406;-78
2021/05/26 06:26:24;;;;;;;2.13;0.70;;;19.70;59.50;;;;;;5008299;28;20117;-76
2021/05/26 06:28:50;;;;;;;2.67;0.95;;;20.20;57.50;;;;;;5008586;28;20555;-77
2021/05/26 06:31:15;;;;;;;2.85;1.00;;;20.10;56.10;;;;;;5007101;28;20018;-79
2021/05/26 06:33:42;;;;;;;3.17;1.10;;;20.50;56.50;;;;;;5010072;28;20580;-77
2021/05/26 06:36:09;;;;;;;2.80;1.02;;;20.80;54.70;;;;;;5009570;28;20484;-78
2021/05/26 06:38:36;;;;;;;2.30;1.00;;;20.50;55.10;;;;;;5001231;28;20122;-78
2021/05/26 06:41:04;;;;;;;3.75;1.48;;;21.20;54.10;;;;;;4995114;28;20049;-78
2021/05/26 06:43:31;;;;;;;4.05;1.70;;;22.30;51.80;;;;;;5003247;28;20026;-76
2021/05/26 06:45:58;;;;;;;3.55;1.00;;;21.80;50.60;;;;;;4995300;28;20437;-78
2021/05/26 06:48:27;;;;;;;4.00;1.50;;;20.60;51.20;;;;;;5011585;28;20107;-78
2021/05/26 06:50:59;;;;;;;5.78;2.28;;;19.50;53.60;;;;;;5006103;28;20030;-78
2021/05/26 06:53:26;;;;;;;6.38;4.43;;;18.60;56.00;;;;;;5006758;28;20036;-79
2021/05/26 06:56:00;;;;;;;4.25;2.78;;;17.80;59.10;;;;;;5001709;28;20140;-79
2021/05/26 06:58:26;;;;;;;3.75;1.52;;;17.20;60.80;;;;;;5003187;28;20457;-78
2021/05/26 07:00:51;;;;;;;6.30;2.22;;;16.70;62.00;;;;;;5008372;28;20429;-77
2021/05/26 07:03:17;;;;;;;9.45;5.05;;;16.20;63.30;;;;;;4966740;28;20049;-79
2021/05/26 07:05:44;;;;;;;5.90;3.70;;;16.10;64.50;;;;;;4969587;28;20036;-78
2021/05/26 07:08:13;;;;;;;3.30;2.42;;;16.20;64.60;;;;;;5013692;28;20038;-78
2021/05/26 07:10:39;;;;;;;7.93;5.55;;;16.50;64.70;;;;;;4968718;28;20093;-81
2021/05/26 07:13:05;;;;;;;5.30;3.53;;;16.90;63.80;;;;;;4982851;28;20026;-78
2021/05/26 07:15:32;;;;;;;10.07;6.43;;;17.20;62.90;;;;;;4987936;28;20042;-79
2021/05/26 07:18:08;;;;;;;6.03;4.22;;;17.20;62.60;;;;;;5005121;28;20042;-79
2021/05/26 07:20:35;;;;;;;10.85;7.47;;;16.90;62.50;;;;;;5003844;28;20054;-78
2021/05/26 07:23:01;;;;;;;6.95;4.82;;;16.60;64.00;;;;;;5003273;28;20124;-79
2021/05/26 07:25:27;;;;;;;15.90;12.95;;;16.30;63.60;;;;;;5004710;28;20467;-82
2021/05/26 07:27:53;;;;;;;20.13;15.95;;;17.00;64.90;;;;;;5003551;28;20073;-78
2021/05/26 07:30:20;;;;;;;20.33;15.10;;;18.20;61.70;;;;;;5005056;28;20058;-78
2021/05/26 07:32:48;;;;;;;11.93;9.00;;;19.30;59.90;;;;;;4980190;28;20041;-78
2021/05/26 07:35:14;;;;;;;21.48;12.10;;;20.20;56.20;;;;;;5008605;28;20049;-78
2021/05/26 07:37:40;;;;;;;5.43;4.03;;;21.10;54.20;;;;;;5007729;28;20022;-77
2021/05/26 07:40:10;;;;;;;32.15;13.57;;;21.60;50.60;;;;;;5011034;28;20743;-78
2021/05/26 07:42:36;;;;;;;17.98;8.45;;;21.80;50.60;;;;;;5010911;28;20474;-78
2021/05/26 07:45:03;;;;;;;16.08;9.60;;;22.40;49.40;;;;;;5007986;28;20065;-79
2021/05/26 07:47:28;;;;;;;18.30;13.02;;;22.30;48.00;;;;;;5005212;28;20034;-78
2021/05/26 07:49:54;;;;;;;13.35;8.25;;;21.80;50.30;;;;;;5004121;28;20065;-76
2021/05/26 07:52:21;;;;;;;15.35;9.90;;;21.50;50.50;;;;;;5003633;28;20026;-77
2021/05/26 07:54:50;;;;;;;22.33;12.43;;;22.00;50.60;;;;;;4985956;28;20030;-78
2021/05/26 07:57:16;;;;;;;18.10;12.18;;;22.90;49.00;;;;;;5001925;28;20093;-77
2021/05/26 07:59:43;;;;;;;9.40;7.35;;;23.60;47.00;;;;;;5002356;28;20030;-76
2021/05/26 08:02:11;;;;;;;16.48;10.43;;;24.20;45.30;;;;;;5007573;28;20061;-77
2021/05/26 08:04:36;;;;;;;9.95;8.05;;;24.60;44.00;;;;;;4973070;28;20129;-78
2021/05/26 08:07:03;;;;;;;5.55;3.53;;;24.80;43.20;;;;;;5004262;28;20105;-76
2021/05/26 08:09:28;;;;;;;12.02;9.43;;;24.40;41.50;;;;;;5004250;28;20109;-81
2021/05/26 08:11:54;;;;;;;12.48;7.95;;;23.70;44.30;;;;;;4967361;28;20040;-75
2021/05/26 08:14:20;;;;;;;14.98;13.25;;;23.10;45.40;;;;;;4988684;28;20379;-77
2021/05/26 08:16:46;;;;;;;4.95;4.45;;;22.60;47.20;;;;;;4990814;28;20323;-78
2021/05/26 08:19:11;;;;;;;1.98;1.10;;;22.30;46.20;;;;;;5000947;28;20439;-78
2021/05/26 08:21:39;;;;;;;2.70;1.60;;;21.80;45.20;;;;;;4997772;28;20054;-79
2021/05/26 08:24:06;;;;;;;2.55;1.35;;;22.00;46.70;;;;;;4997667;28;20391;-77
2021/05/26 08:26:32;;;;;;;3.60;3.20;;;22.80;45.40;;;;;;5007993;28;20486;-81
2021/05/26 08:28:58;;;;;;;2.08;1.00;;;23.20;43.60;;;;;;4992457;28;20542;-79
2021/05/26 08:31:24;;;;;;;4.10;1.85;;;23.40;43.50;;;;;;4998220;28;20113;-78
2021/05/26 08:33:49;;;;;;;3.15;2.63;;;23.30;44.00;;;;;;5011535;28;20057;-76
2021/05/26 08:36:15;;;;;;;5.20;4.45;;;22.80;45.70;;;;;;5012119;28;20030;-77
2021/05/26 08:38:43;;;;;;;5.90;4.95;;;22.60;46.70;;;;;;5012218;28;20467;-76
2021/05/26 08:41:11;;;;;;;3.30;2.35;;;23.00;46.40;;;;;;5016581;28;20030;-78
2021/05/26 08:43:39;;;;;;;2.05;1.50;;;23.60;44.70;;;;;;5019907;28;20089;-78
2021/05/26 08:46:06;;;;;;;2.17;0.40;;;24.20;43.40;;;;;;5020567;28;20030;-76
2021/05/26 08:48:33;;;;;;;4.53;2.35;;;24.50;40.30;;;;;;4997537;28;20026;-83
2021/05/26 08:51:00;;;;;;;2.20;1.35;;;24.50;42.00;;;;;;5012713;28;20034;-78
2021/05/26 08:53:27;;;;;;;1.13;0.65;;;25.00;42.20;;;;;;5007478;28;20038;-78
2021/05/26 08:55:53;;;;;;;2.35;1.33;;;25.50;40.40;;;;;;5010204;28;20471;-74
2021/05/26 08:58:19;;;;;;;3.67;1.50;;;25.50;39.70;;;;;;5013402;28;20129;-78
2021/05/26 09:00:47;;;;;;;3.08;2.45;;;25.10;40.10;;;;;;4994732;28;20463;-77
2021/05/26 09:03:12;;;;;;;2.97;1.98;;;24.40;40.80;;;;;;5002338;28;20046;-79
2021/05/26 09:05:38;;;;;;;2.20;1.52;;;24.10;42.80;;;;;;4974771;28;20140;-77
2021/05/26 09:08:25;;;;;;;1.50;0.63;;;24.50;41.60;;;;;;5008020;28;20048;-76
2021/05/26 09:11:02;;;;;;;1.95;0.50;;;25.20;40.20;;;;;;5010080;28;20084;-76
2021/05/26 09:13:37;;;;;;;1.50;0.60;;;25.30;38.50;;;;;;4993922;28;20437;-75
2021/05/26 09:16:07;;;;;;;2.67;1.42;;;25.10;38.60;;;;;;5009484;28;20031;-78
2021/05/26 09:19:06;;;;;;;3.58;2.22;;;24.60;40.30;;;;;;4975064;28;20125;-76
2021/05/26 09:21:42;;;;;;;2.72;2.00;;;23.90;41.40;;;;;;4985387;28;20046;-77
2021/05/26 09:24:20;;;;;;;1.75;0.73;;;23.40;43.70;;;;;;5010852;28;20060;-76
2021/05/26 09:27:01;;;;;;;1.20;0.60;;;23.70;42.70;;;;;;5012363;28;20061;-77
2021/05/26 09:29:28;;;;;;;1.52;0.80;;;24.20;42.70;;;;;;5007282;28;20034;-76
2021/05/26 09:32:14;;;;;;;1.40;0.73;;;24.40;40.70;;;;;;5005880;28;20038;-77
2021/05/26 09:34:42;;;;;;;1.63;0.95;;;24.10;41.30;;;;;;5011627;28;20493;-76
2021/05/26 09:37:13;;;;;;;1.58;1.00;;;23.60;42.90;;;;;;5001695;28;20033;-77
2021/05/26 09:39:47;;;;;;;2.92;2.10;;;23.90;43.20;;;;;;4991638;28;20065;-77
2021/05/26 09:42:25;;;;;;;2.20;1.17;;;24.60;43.00;;;;;;4993549;28;20125;-76
2021/05/26 09:45:11;;;;;;;1.60;1.00;;;24.80;42.10;;;;;;5010015;28;20045;-76
2021/05/26 09:47:58;;;;;;;2.15;0.77;;;24.40;41.80;;;;;;5009875;28;20030;-76
2021/05/26 09:50:26;;;;;;;1.73;0.60;;;23.80;41.60;;;;;;5010298;28;20419;-75
2021/05/26 09:53:05;;;;;;;1.75;0.70;;;23.30;42.20;;;;;;5008738;28;20030;-77
2021/05/26 09:55:35;;;;;;;1.80;0.70;;;23.20;42.40;;;;;;5009871;28;20120;-76
2021/05/26 09:58:03;;;;;;;1.50;0.75;;;23.30;42.50;;;;;;5009670;28;20101;-76
2021/05/26 10:00:29;;;;;;;2.05;0.65;;;23.10;42.70;;;;;;5010972;28;20030;-77
2021/05/26 10:02:56;;;;;;;2.40;1.10;;;22.60;43.70;;;;;;5006847;28;20065;-77
2021/05/26 10:05:22;;;;;;;1.20;0.70;;;22.00;44.70;;;;;;5011136;28;20502;-76
2021/05/26 10:07:57;;;;;;;2.25;1.20;;;21.80;45.20;;;;;;5008202;28;20410;-77
2021/05/26 10:10:28;;;;;;;2.63;1.40;;;21.50;45.40;;;;;;5010244;28;20332;-77
2021/05/26 10:13:01;;;;;;;1.95;1.00;;;21.30;46.00;;;;;;5008035;28;20061;-76
2021/05/26 10:15:28;;;;;;;2.45;0.85;;;21.10;46.20;;;;;;5010717;28;20538;-76
2021/05/26 10:17:58;;;;;;;1.83;1.00;;;21.50;46.00;;;;;;5011062;28;20060;-76
2021/05/26 10:20:35;;;;;;;3.05;1.00;;;21.80;45.50;;;;;;5012865;28;20770;-75
2021/05/26 10:23:02;;;;;;;2.08;0.60;;;21.90;45.10;;;;;;5003129;28;20475;-77
2021/05/26 10:25:29;;;;;;;6.00;1.55;;;21.50;45.70;;;;;;5007513;28;20092;-76
2021/05/26 10:27:59;;;;;;;2.63;0.70;;;21.20;46.50;;;;;;5010125;28;20053;-77
2021/05/26 10:30:27;;;;;;;4.95;1.52;;;21.00;46.70;;;;;;5009145;28;20025;-79
2021/05/26 10:32:56;;;;;;;5.75;4.32;;;21.00;47.40;;;;;;5008618;28;20065;-77
2021/05/26 10:35:23;;;;;;;4.80;3.58;;;21.20;48.10;;;;;;5008657;28;20030;-77
2021/05/26 10:38:03;;;;;;;5.13;4.20;;;21.30;47.70;;;;;;5009487;28;20113;-77
2021/05/26 10:40:31;;;;;;;5.68;3.00;;;21.30;48.00;;;;;;5009500;28;20052;-75
2021/05/26 10:43:21;;;;;;;4.68;2.20;;;21.10;48.20;;;;;;5008586;28;20209;-78
2021/05/26 10:45:55;;;;;;;1.80;0.85;;;20.80;47.50;;;;;;4985081;28;20125;-78
2021/05/26 10:48:39;;;;;;;4.68;1.77;;;20.50;47.90;;;;;;5006874;28;20026;-76
2021/05/26 10:51:05;;;;;;;3.13;1.52;;;20.50;49.60;;;;;;4989775;28;20031;-78
2021/05/26 10:53:43;;;;;;;3.55;1.38;;;20.40;50.00;;;;;;5008946;28;20117;-77
2021/05/26 10:56:37;;;;;;;4.05;2.20;;;20.30;49.10;;;;;;5003919;28;20585;-79
2021/05/26 10:59:13;;;;;;;4.70;2.20;;;20.10;49.60;;;;;;4999811;28;20030;-79
2021/05/26 11:02:05;;;;;;;4.20;2.20;;;20.00;50.20;;;;;;4991790;28;20384;-77
2021/05/26 11:04:32;;;;;;;3.75;2.00;;;19.80;50.80;;;;;;5004358;28;20132;-77
2021/05/26 11:07:29;;;;;;;4.03;1.38;;;19.80;50.90;;;;;;5009477;28;20065;-78
2021/05/26 11:09:56;;;;;;;4.03;1.42;;;19.70;50.70;;;;;;5004603;28;20037;-76
2021/05/26 11:12:22;;;;;;;2.55;1.25;;;19.50;50.60;;;;;;4979974;28;20470;-76
2021/05/26 11:14:55;;;;;;;3.35;0.98;;;19.50;50.70;;;;;;5001748;28;20034;-77
2021/05/26 11:17:26;;;;;;;;;;;19.50;50.80;;;;;;5012933;28;20060;-76
2021/05/26 11:20:08;;;;;;;2.65;0.98;;;19.90;51.10;;;;;;5012073;28;20016;-78
2021/05/26 11:22:34;;;;;;;3.08;1.25;;;20.60;50.20;;;;;;5006903;28;20472;-77
2021/05/26 11:25:00;;;;;;;2.95;1.10;;;21.10;48.50;;;;;;4989971;28;20049;-77
2021/05/26 11:27:28;;;;;;;3.35;1.30;;;21.40;48.10;;;;;;5004793;28;20026;-79
2021/05/26 11:29:56;;;;;;;2.25;1.30;;;21.60;47.20;;;;;;5012817;28;20033;-78
2021/05/26 11:32:25;;;;;;;5.22;1.55;;;21.70;46.60;;;;;;5007791;28;20454;-76
2021/05/26 11:34:53;;;;;;;1.88;1.00;;;21.60;46.20;;;;;;4993643;28;20033;-76
2021/05/26 11:37:37;;;;;;;2.45;1.50;;;21.50;46.40;;;;;;5011105;28;20029;-76
2021/05/26 11:40:19;;;;;;;3.08;1.00;;;21.60;46.70;;;;;;5006936;28;20029;-78
2021/05/26 11:42:45;;;;;;;4.68;1.20;;;21.80;47.10;;;;;;5007039;28;20188;-75
2021/05/26 11:45:11;;;;;;;2.10;1.20;;;21.90;46.20;;;;;;5012096;28;20038;-77
2021/05/26 11:47:41;;;;;;;2.08;1.20;;;21.70;45.40;;;;;;5013489;28;20418;-76
2021/05/26 11:50:16;;;;;;;4.32;1.60;;;21.40;46.00;;;;;;5014077;28;20103;-77
2021/05/26 11:52:48;;;;;;;3.58;1.60;;;21.40;46.70;;;;;;5012182;28;20121;-75
2021/05/26 11:55:16;;;;;;;2.97;1.25;;;21.70;47.30;;;;;;5011847;28;20056;-78
2021/05/26 11:57:43;;;;;;;2.90;1.40;;;22.00;46.80;;;;;;4996671;28;20033;-77
2021/05/26 12:00:25;;;;;;;3.20;1.40;;;22.20;45.50;;;;;;5012805;28;20065;-76
2021/05/26 12:02:55;;;;;;;3.60;1.60;;;22.30;45.10;;;;;;5005642;28;20113;-77
2021/05/26 12:05:56;;;;;;;3.45;1.60;;;22.30;44.90;;;;;;5012782;28;20038;-77
2021/05/26 12:08:33;;;;;;;4.22;1.50;;;21.90;45.30;;;;;;4979562;28;20056;-79
2021/05/26 12:11:00;;;;;;;4.80;1.58;;;21.60;45.70;;;;;;5013120;28;20493;-81
2021/05/26 12:13:30;;;;;;;3.47;1.67;;;21.50;46.40;;;;;;5009273;28;20048;-80
2021/05/26 12:15:59;;;;;;;3.92;1.60;;;21.40;46.20;;;;;;5011325;28;20033;-83
2021/05/26 12:18:25;;;;;;;3.17;1.25;;;21.50;46.30;;;;;;5011922;28;20083;-79
2021/05/26 12:20:52;;;;;;;2.83;1.25;;;21.50;45.90;;;;;;5011903;28;20078;-78
2021/05/26 12:23:33;;;;;;;4.70;2.15;;;21.40;46.30;;;;;;5004324;28;20127;-78
2021/05/26 12:25:59;;;;;;;4.35;1.70;;;21.30;46.70;;;;;;5004387;28;20033;-77
2021/05/26 12:28:28;;;;;;;2.95;1.90;;;21.40;47.10;;;;;;4997775;28;20030;-81
2021/05/26 12:30:54;;;;;;;5.40;1.50;;;21.50;47.00;;;;;;5006758;28;20121;-78
2021/05/26 12:33:25;;;;;;;2.55;1.25;;;21.50;46.00;;;;;;5003947;28;20060;-78
2021/05/26 12:36:02;;;;;;;5.35;1.55;;;21.40;45.60;;;;;;5013755;28;20037;-78
2021/05/26 12:38:32;;;;;;;2.53;0.90;;;21.10;46.10;;;;;;5002345;28;20520;-78
2021/05/26 12:40:58;;;;;;;4.10;0.98;;;20.80;46.50;;;;;;5010478;28;20037;-77
2021/05/26 12:43:31;;;;;;;3.25;0.63;;;20.60;45.60;;;;;;5012552;28;20033;-78
2021/05/26 12:45:57;;;;;;;3.28;0.60;;;20.70;45.70;;;;;;5010622;28;20034;-79
2021/05/26 12:48:29;;;;;;;1.65;0.55;;;21.10;43.70;;;;;;4997513;28;20124;-79
2021/05/26 12:51:00;;;;;;;2.90;0.80;;;21.40;42.60;;;;;;5013680;28;20036;-80